PAMD METAR and TAF weather

Enter ICAO airport designator
Station Type Date Time Source
PAMD METAR 2021/10/22 18:26 UTC NOAA

PAMD 221826Z AUTO 11018G25KT 7SM OVC004 08/07 A2882 RMK AO2


Station Type Date Time Source
PAMD Decoded METAR 2021/10/22 18:26 UTC NOAA

Middleton Island, Middleton Island Airport, AK, United States (PAMD) 59-26N 146-18W 14M
Oct 22, 2021 - 02:26 PM EDT / 2021.10.22 1826 UTC
Wind: from the ESE (110 degrees) at 21 MPH (18 KT) gusting to 29 MPH (25 KT):0
Visibility: 7 mile(s):0
Sky conditions: overcast
Temperature: 46 F (8 C)
Dew Point: 44 F (7 C)
Relative Humidity: 93%
Pressure (altimeter): 28.82 in. Hg (975 hPa)
ob: PAMD 221826Z AUTO 11018G25KT 7SM OVC004 08/07 A2882 RMK AO2
cycle: 18

Station Type Date Time Source
PAMD TAF UTC NOAA

Error!

Example: see airport list